sensor_id;sensor_type;location;lat;lon;timestamp;P1;durP1;ratioP1;P2;durP2;ratioP2
9082;SDS011;4577;48.704;9.000;2022-10-26T00:02:23;6.73;;;3.40;;
9082;SDS011;4577;48.704;9.000;2022-10-26T00:04:49;6.03;;;3.00;;
9082;SDS011;4577;48.704;9.000;2022-10-26T00:07:15;5.83;;;3.43;;
9082;SDS011;4577;48.704;9.000;2022-10-26T00:09:41;7.80;;;3.63;;
9082;SDS011;4577;48.704;9.000;2022-10-26T00:12:07;9.13;;;3.67;;
9082;SDS011;4577;48.704;9.000;2022-10-26T00:14:34;8.63;;;3.60;;
9082;SDS011;4577;48.704;9.000;2022-10-26T00:16:59;7.63;;;3.33;;
9082;SDS011;4577;48.704;9.000;2022-10-26T00:19:26;13.10;;;4.03;;
9082;SDS011;4577;48.704;9.000;2022-10-26T00:21:52;14.43;;;3.53;;
9082;SDS011;4577;48.704;9.000;2022-10-26T00:24:18;5.53;;;3.50;;
9082;SDS011;4577;48.704;9.000;2022-10-26T00:26:44;7.77;;;4.10;;
9082;SDS011;4577;48.704;9.000;2022-10-26T00:29:10;4.20;;;3.30;;
9082;SDS011;4577;48.704;9.000;2022-10-26T00:31:37;8.13;;;3.03;;
9082;SDS011;4577;48.704;9.000;2022-10-26T00:34:03;6.90;;;3.20;;
9082;SDS011;4577;48.704;9.000;2022-10-26T00:36:29;9.63;;;3.30;;
9082;SDS011;4577;48.704;9.000;2022-10-26T00:38:55;8.20;;;3.63;;
9082;SDS011;4577;48.704;9.000;2022-10-26T00:41:23;9.20;;;3.80;;
9082;SDS011;4577;48.704;9.000;2022-10-26T00:43:51;8.13;;;3.50;;
9082;SDS011;4577;48.704;9.000;2022-10-26T00:46:17;9.17;;;3.60;;
9082;SDS011;4577;48.704;9.000;2022-10-26T00:48:55;7.73;;;3.70;;
9082;SDS011;4577;48.704;9.000;2022-10-26T00:53:56;7.50;;;3.80;;
9082;SDS011;4577;48.704;9.000;2022-10-26T00:56:28;11.57;;;3.80;;
9082;SDS011;4577;48.704;9.000;2022-10-26T00:58:55;6.53;;;4.27;;
9082;SDS011;4577;48.704;9.000;2022-10-26T01:01:26;5.77;;;3.60;;
9082;SDS011;4577;48.704;9.000;2022-10-26T01:03:52;19.03;;;5.00;;
9082;SDS011;4577;48.704;9.000;2022-10-26T01:06:18;10.77;;;4.07;;
9082;SDS011;4577;48.704;9.000;2022-10-26T01:08:45;9.83;;;4.13;;
9082;SDS011;4577;48.704;9.000;2022-10-26T01:11:11;13.60;;;5.10;;
9082;SDS011;4577;48.704;9.000;2022-10-26T01:13:37;9.20;;;4.00;;
9082;SDS011;4577;48.704;9.000;2022-10-26T01:31:55;9.97;;;3.33;;
9082;SDS011;4577;48.704;9.000;2022-10-26T01:34:35;11.63;;;3.60;;
9082;SDS011;4577;48.704;9.000;2022-10-26T01:37:11;6.37;;;3.70;;
9082;SDS011;4577;48.704;9.000;2022-10-26T01:39:44;8.50;;;3.47;;
9082;SDS011;4577;48.704;9.000;2022-10-26T01:42:14;14.83;;;3.33;;
9082;SDS011;4577;48.704;9.000;2022-10-26T01:44:43;4.00;;;2.93;;
9082;SDS011;4577;48.704;9.000;2022-10-26T01:47:14;16.67;;;3.50;;
9082;SDS011;4577;48.704;9.000;2022-10-26T01:49:43;7.30;;;3.23;;
9082;SDS011;4577;48.704;9.000;2022-10-26T01:52:13;6.20;;;3.30;;
9082;SDS011;4577;48.704;9.000;2022-10-26T01:54:39;6.97;;;3.37;;
9082;SDS011;4577;48.704;9.000;2022-10-26T01:57:09;12.13;;;3.70;;
9082;SDS011;4577;48.704;9.000;2022-10-26T02:02:11;17.83;;;8.43;;
9082;SDS011;4577;48.704;9.000;2022-10-26T02:10:09;8.77;;;4.63;;
9082;SDS011;4577;48.704;9.000;2022-10-26T02:15:17;21.33;;;10.50;;
9082;SDS011;4577;48.704;9.000;2022-10-26T02:17:48;14.50;;;5.50;;
9082;SDS011;4577;48.704;9.000;2022-10-26T02:20:26;5.03;;;3.40;;
9082;SDS011;4577;48.704;9.000;2022-10-26T02:22:57;5.87;;;3.00;;
9082;SDS011;4577;48.704;9.000;2022-10-26T02:25:32;6.40;;;3.33;;
9082;SDS011;4577;48.704;9.000;2022-10-26T02:28:04;7.80;;;3.30;;
9082;SDS011;4577;48.704;9.000;2022-10-26T02:30:32;8.50;;;3.90;;
9082;SDS011;4577;48.704;9.000;2022-10-26T02:33:00;8.80;;;3.90;;
9082;SDS011;4577;48.704;9.000;2022-10-26T02:35:30;8.20;;;5.23;;
9082;SDS011;4577;48.704;9.000;2022-10-26T02:37:59;16.53;;;5.20;;
9082;SDS011;4577;48.704;9.000;2022-10-26T02:40:28;16.17;;;4.40;;
9082;SDS011;4577;48.704;9.000;2022-10-26T02:42:57;19.03;;;4.40;;
9082;SDS011;4577;48.704;9.000;2022-10-26T02:45:37;14.00;;;8.17;;
9082;SDS011;4577;48.704;9.000;2022-10-26T02:48:08;16.00;;;8.47;;
9082;SDS011;4577;48.704;9.000;2022-10-26T02:50:37;22.07;;;7.40;;
9082;SDS011;4577;48.704;9.000;2022-10-26T02:53:23;12.17;;;5.73;;
9082;SDS011;4577;48.704;9.000;2022-10-26T02:56:00;23.30;;;10.77;;
9082;SDS011;4577;48.704;9.000;2022-10-26T02:58:32;16.93;;;9.10;;
9082;SDS011;4577;48.704;9.000;2022-10-26T03:01:04;13.70;;;8.60;;
9082;SDS011;4577;48.704;9.000;2022-10-26T03:03:30;14.40;;;7.40;;
9082;SDS011;4577;48.704;9.000;2022-10-26T03:05:56;9.70;;;5.90;;
9082;SDS011;4577;48.704;9.000;2022-10-26T03:08:22;6.63;;;4.60;;
9082;SDS011;4577;48.704;9.000;2022-10-26T03:10:48;8.23;;;4.70;;
9082;SDS011;4577;48.704;9.000;2022-10-26T03:13:14;8.90;;;4.20;;
9082;SDS011;4577;48.704;9.000;2022-10-26T03:15:40;8.40;;;4.03;;
9082;SDS011;4577;48.704;9.000;2022-10-26T03:18:06;9.93;;;3.77;;
9082;SDS011;4577;48.704;9.000;2022-10-26T03:20:33;14.70;;;4.40;;
9082;SDS011;4577;48.704;9.000;2022-10-26T03:22:59;7.13;;;3.93;;
9082;SDS011;4577;48.704;9.000;2022-10-26T03:25:24;7.93;;;4.03;;
9082;SDS011;4577;48.704;9.000;2022-10-26T03:27:57;5.70;;;4.50;;
9082;SDS011;4577;48.704;9.000;2022-10-26T03:30:27;5.93;;;4.13;;
9082;SDS011;4577;48.704;9.000;2022-10-26T03:32:53;5.67;;;4.03;;
9082;SDS011;4577;48.704;9.000;2022-10-26T03:35:19;8.90;;;4.43;;
9082;SDS011;4577;48.704;9.000;2022-10-26T03:37:46;8.83;;;3.50;;
9082;SDS011;4577;48.704;9.000;2022-10-26T03:40:12;5.47;;;3.90;;
9082;SDS011;4577;48.704;9.000;2022-10-26T03:42:37;10.50;;;4.30;;
9082;SDS011;4577;48.704;9.000;2022-10-26T03:45:04;11.90;;;4.03;;
9082;SDS011;4577;48.704;9.000;2022-10-26T03:47:30;10.80;;;4.43;;
9082;SDS011;4577;48.704;9.000;2022-10-26T03:49:57;9.43;;;3.90;;
9082;SDS011;4577;48.704;9.000;2022-10-26T03:52:23;8.20;;;3.70;;
9082;SDS011;4577;48.704;9.000;2022-10-26T03:54:49;4.97;;;3.50;;
9082;SDS011;4577;48.704;9.000;2022-10-26T03:57:15;6.47;;;3.50;;
9082;SDS011;4577;48.704;9.000;2022-10-26T03:59:40;5.30;;;3.23;;
9082;SDS011;4577;48.704;9.000;2022-10-26T04:02:06;11.17;;;3.47;;
9082;SDS011;4577;48.704;9.000;2022-10-26T04:04:33;8.00;;;2.97;;
9082;SDS011;4577;48.704;9.000;2022-10-26T04:06:59;8.90;;;3.10;;
9082;SDS011;4577;48.704;9.000;2022-10-26T04:09:24;8.40;;;4.30;;
9082;SDS011;4577;48.704;9.000;2022-10-26T04:11:50;9.20;;;3.60;;
9082;SDS011;4577;48.704;9.000;2022-10-26T04:14:16;13.00;;;3.50;;
9082;SDS011;4577;48.704;9.000;2022-10-26T04:16:42;5.43;;;3.33;;
9082;SDS011;4577;48.704;9.000;2022-10-26T04:19:07;4.37;;;2.40;;
9082;SDS011;4577;48.704;9.000;2022-10-26T04:21:33;3.30;;;2.70;;
9082;SDS011;4577;48.704;9.000;2022-10-26T04:23:59;5.80;;;3.00;;
9082;SDS011;4577;48.704;9.000;2022-10-26T04:26:25;8.03;;;3.10;;
9082;SDS011;4577;48.704;9.000;2022-10-26T04:28:51;5.40;;;3.00;;
9082;SDS011;4577;48.704;9.000;2022-10-26T04:31:17;9.03;;;2.83;;
9082;SDS011;4577;48.704;9.000;2022-10-26T04:33:43;19.60;;;9.20;;
9082;SDS011;4577;48.704;9.000;2022-10-26T04:36:09;49.77;;;29.10;;
9082;SDS011;4577;48.704;9.000;2022-10-26T04:38:35;26.27;;;13.77;;
9082;SDS011;4577;48.704;9.000;2022-10-26T04:41:01;8.07;;;4.73;;
9082;SDS011;4577;48.704;9.000;2022-10-26T04:43:27;5.53;;;3.60;;
9082;SDS011;4577;48.704;9.000;2022-10-26T04:45:53;6.43;;;3.60;;
9082;SDS011;4577;48.704;9.000;2022-10-26T04:48:20;5.83;;;3.00;;
9082;SDS011;4577;48.704;9.000;2022-10-26T04:50:46;7.90;;;3.50;;
9082;SDS011;4577;48.704;9.000;2022-10-26T04:53:12;7.30;;;2.80;;
9082;SDS011;4577;48.704;9.000;2022-10-26T04:55:38;4.13;;;2.63;;
9082;SDS011;4577;48.704;9.000;2022-10-26T04:58:04;4.73;;;2.40;;
9082;SDS011;4577;48.704;9.000;2022-10-26T05:00:30;4.90;;;3.03;;
9082;SDS011;4577;48.704;9.000;2022-10-26T05:03:03;4.10;;;2.90;;
9082;SDS011;4577;48.704;9.000;2022-10-26T05:05:31;5.17;;;3.00;;
9082;SDS011;4577;48.704;9.000;2022-10-26T05:07:59;9.70;;;3.20;;
9082;SDS011;4577;48.704;9.000;2022-10-26T05:10:25;7.97;;;3.20;;
9082;SDS011;4577;48.704;9.000;2022-10-26T05:12:51;5.27;;;2.63;;
9082;SDS011;4577;48.704;9.000;2022-10-26T05:15:21;6.97;;;2.77;;
9082;SDS011;4577;48.704;9.000;2022-10-26T05:17:50;11.20;;;4.77;;
9082;SDS011;4577;48.704;9.000;2022-10-26T05:20:21;41.80;;;10.97;;
9082;SDS011;4577;48.704;9.000;2022-10-26T05:22:53;28.70;;;10.20;;
9082;SDS011;4577;48.704;9.000;2022-10-26T05:25:19;31.00;;;9.67;;
9082;SDS011;4577;48.704;9.000;2022-10-26T05:27:45;8.67;;;3.70;;
9082;SDS011;4577;48.704;9.000;2022-10-26T05:30:11;13.40;;;5.60;;
9082;SDS011;4577;48.704;9.000;2022-10-26T05:32:37;15.80;;;5.30;;
9082;SDS011;4577;48.704;9.000;2022-10-26T05:35:02;15.80;;;5.07;;
9082;SDS011;4577;48.704;9.000;2022-10-26T05:37:28;6.90;;;4.60;;
9082;SDS011;4577;48.704;9.000;2022-10-26T05:39:54;5.83;;;3.33;;
9082;SDS011;4577;48.704;9.000;2022-10-26T05:42:20;6.03;;;2.87;;
9082;SDS011;4577;48.704;9.000;2022-10-26T05:44:47;6.73;;;3.17;;
9082;SDS011;4577;48.704;9.000;2022-10-26T05:47:13;7.30;;;3.50;;
9082;SDS011;4577;48.704;9.000;2022-10-26T05:49:39;6.00;;;3.50;;
9082;SDS011;4577;48.704;9.000;2022-10-26T05:52:05;9.03;;;3.67;;
9082;SDS011;4577;48.704;9.000;2022-10-26T05:54:31;5.43;;;2.97;;
9082;SDS011;4577;48.704;9.000;2022-10-26T05:56:57;4.90;;;3.73;;
9082;SDS011;4577;48.704;9.000;2022-10-26T05:59:23;10.87;;;3.30;;
9082;SDS011;4577;48.704;9.000;2022-10-26T06:07:00;4.67;;;2.97;;
9082;SDS011;4577;48.704;9.000;2022-10-26T06:09:26;13.90;;;5.40;;
9082;SDS011;4577;48.704;9.000;2022-10-26T06:11:52;17.77;;;4.70;;
9082;SDS011;4577;48.704;9.000;2022-10-26T06:14:19;11.73;;;4.17;;
9082;SDS011;4577;48.704;9.000;2022-10-26T06:25:00;49.43;;;9.47;;
9082;SDS011;4577;48.704;9.000;2022-10-26T06:28:35;22.63;;;9.07;;
9082;SDS011;4577;48.704;9.000;2022-10-26T06:30:43;16.70;;;5.90;;
9082;SDS011;4577;48.704;9.000;2022-10-26T06:33:09;12.47;;;5.40;;
9082;SDS011;4577;48.704;9.000;2022-10-26T06:38:11;78.47;;;11.40;;
9082;SDS011;4577;48.704;9.000;2022-10-26T06:40:41;123.60;;;20.13;;
9082;SDS011;4577;48.704;9.000;2022-10-26T06:43:15;28.13;;;4.93;;
9082;SDS011;4577;48.704;9.000;2022-10-26T06:45:52;9.10;;;2.70;;
9082;SDS011;4577;48.704;9.000;2022-10-26T06:48:57;124.27;;;21.83;;
9082;SDS011;4577;48.704;9.000;2022-10-26T06:51:48;45.10;;;9.60;;
9082;SDS011;4577;48.704;9.000;2022-10-26T06:55:03;12.83;;;3.23;;
9082;SDS011;4577;48.704;9.000;2022-10-26T06:57:10;10.33;;;2.87;;
9082;SDS011;4577;48.704;9.000;2022-10-26T06:59:39;7.17;;;3.00;;
9082;SDS011;4577;48.704;9.000;2022-10-26T07:02:12;5.70;;;3.57;;
9082;SDS011;4577;48.704;9.000;2022-10-26T07:04:41;17.13;;;3.67;;
9082;SDS011;4577;48.704;9.000;2022-10-26T07:07:11;6.90;;;4.07;;
9082;SDS011;4577;48.704;9.000;2022-10-26T07:09:42;40.13;;;9.13;;
9082;SDS011;4577;48.704;9.000;2022-10-26T07:12:08;98.80;;;16.80;;
9082;SDS011;4577;48.704;9.000;2022-10-26T07:14:34;17.50;;;4.37;;
9082;SDS011;4577;48.704;9.000;2022-10-26T07:17:00;10.47;;;2.97;;
9082;SDS011;4577;48.704;9.000;2022-10-26T07:19:26;7.13;;;3.40;;
9082;SDS011;4577;48.704;9.000;2022-10-26T07:21:55;16.60;;;4.50;;
9082;SDS011;4577;48.704;9.000;2022-10-26T07:24:23;18.57;;;4.30;;
9082;SDS011;4577;48.704;9.000;2022-10-26T07:26:49;13.93;;;3.60;;
9082;SDS011;4577;48.704;9.000;2022-10-26T07:29:17;25.77;;;6.93;;
9082;SDS011;4577;48.704;9.000;2022-10-26T07:31:43;11.40;;;4.17;;
9082;SDS011;4577;48.704;9.000;2022-10-26T07:34:08;8.80;;;3.20;;
9082;SDS011;4577;48.704;9.000;2022-10-26T07:36:34;6.00;;;3.77;;
9082;SDS011;4577;48.704;9.000;2022-10-26T07:39:03;15.73;;;3.80;;
9082;SDS011;4577;48.704;9.000;2022-10-26T07:41:29;14.43;;;3.97;;
9082;SDS011;4577;48.704;9.000;2022-10-26T07:43:55;8.20;;;4.13;;
9082;SDS011;4577;48.704;9.000;2022-10-26T07:46:21;8.07;;;3.90;;
9082;SDS011;4577;48.704;9.000;2022-10-26T07:48:47;6.77;;;3.93;;
9082;SDS011;4577;48.704;9.000;2022-10-26T07:51:14;6.03;;;3.70;;
9082;SDS011;4577;48.704;9.000;2022-10-26T07:53:40;9.97;;;3.70;;
9082;SDS011;4577;48.704;9.000;2022-10-26T07:56:06;8.73;;;3.70;;
9082;SDS011;4577;48.704;9.000;2022-10-26T07:58:32;7.70;;;3.80;;
9082;SDS011;4577;48.704;9.000;2022-10-26T08:01:03;9.23;;;3.60;;
9082;SDS011;4577;48.704;9.000;2022-10-26T08:03:33;8.80;;;4.60;;
9082;SDS011;4577;48.704;9.000;2022-10-26T08:05:59;13.93;;;4.10;;
9082;SDS011;4577;48.704;9.000;2022-10-26T08:08:26;9.60;;;3.50;;
9082;SDS011;4577;48.704;9.000;2022-10-26T08:10:52;9.30;;;4.20;;
9082;SDS011;4577;48.704;9.000;2022-10-26T08:13:18;7.57;;;3.77;;
9082;SDS011;4577;48.704;9.000;2022-10-26T08:15:44;8.47;;;4.00;;
9082;SDS011;4577;48.704;9.000;2022-10-26T08:18:11;11.40;;;4.03;;
9082;SDS011;4577;48.704;9.000;2022-10-26T08:20:37;6.73;;;4.60;;
9082;SDS011;4577;48.704;9.000;2022-10-26T08:23:03;7.90;;;3.53;;
9082;SDS011;4577;48.704;9.000;2022-10-26T08:25:30;32.40;;;8.70;;
9082;SDS011;4577;48.704;9.000;2022-10-26T08:27:59;152.03;;;22.30;;
9082;SDS011;4577;48.704;9.000;2022-10-26T08:30:27;8.90;;;4.60;;
9082;SDS011;4577;48.704;9.000;2022-10-26T08:33:00;7.67;;;3.83;;
9082;SDS011;4577;48.704;9.000;2022-10-26T08:35:27;47.53;;;6.50;;
9082;SDS011;4577;48.704;9.000;2022-10-26T08:37:53;14.53;;;4.83;;
9082;SDS011;4577;48.704;9.000;2022-10-26T08:40:27;10.07;;;3.97;;
9082;SDS011;4577;48.704;9.000;2022-10-26T08:43:06;9.10;;;3.87;;
9082;SDS011;4577;48.704;9.000;2022-10-26T08:45:35;9.23;;;3.67;;
9082;SDS011;4577;48.704;9.000;2022-10-26T08:48:05;33.87;;;7.37;;
9082;SDS011;4577;48.704;9.000;2022-10-26T08:50:44;5.00;;;2.57;;
9082;SDS011;4577;48.704;9.000;2022-10-26T08:55:42;21.20;;;5.90;;
9082;SDS011;4577;48.704;9.000;2022-10-26T08:58:16;6.00;;;3.00;;
9082;SDS011;4577;48.704;9.000;2022-10-26T09:00:47;8.37;;;3.67;;
9082;SDS011;4577;48.704;9.000;2022-10-26T09:03:14;11.20;;;3.77;;
9082;SDS011;4577;48.704;9.000;2022-10-26T09:06:16;8.30;;;3.13;;
9082;SDS011;4577;48.704;9.000;2022-10-26T09:08:51;8.83;;;3.90;;
9082;SDS011;4577;48.704;9.000;2022-10-26T09:16:31;14.50;;;3.73;;
9082;SDS011;4577;48.704;9.000;2022-10-26T09:22:03;8.47;;;3.17;;
9082;SDS011;4577;48.704;9.000;2022-10-26T09:24:32;13.60;;;3.20;;
9082;SDS011;4577;48.704;9.000;2022-10-26T09:27:07;7.23;;;2.73;;
9082;SDS011;4577;48.704;9.000;2022-10-26T09:29:40;8.43;;;3.17;;
9082;SDS011;4577;48.704;9.000;2022-10-26T09:32:14;20.53;;;3.20;;
9082;SDS011;4577;48.704;9.000;2022-10-26T09:35:03;11.07;;;3.47;;
9082;SDS011;4577;48.704;9.000;2022-10-26T09:37:38;11.10;;;3.17;;
9082;SDS011;4577;48.704;9.000;2022-10-26T09:43:00;13.30;;;3.90;;
9082;SDS011;4577;48.704;9.000;2022-10-26T09:45:30;10.30;;;3.47;;
9082;SDS011;4577;48.704;9.000;2022-10-26T09:48:08;12.60;;;4.33;;
9082;SDS011;4577;48.704;9.000;2022-10-26T09:50:39;14.97;;;7.23;;
9082;SDS011;4577;48.704;9.000;2022-10-26T09:53:06;22.63;;;8.83;;
9082;SDS011;4577;48.704;9.000;2022-10-26T09:55:33;8.97;;;3.90;;
9082;SDS011;4577;48.704;9.000;2022-10-26T09:58:00;21.73;;;5.30;;
9082;SDS011;4577;48.704;9.000;2022-10-26T10:00:30;11.70;;;4.30;;
9082;SDS011;4577;48.704;9.000;2022-10-26T10:02:58;10.10;;;3.23;;
9082;SDS011;4577;48.704;9.000;2022-10-26T10:05:31;25.83;;;5.83;;
9082;SDS011;4577;48.704;9.000;2022-10-26T10:10:38;13.37;;;4.87;;
9082;SDS011;4577;48.704;9.000;2022-10-26T10:13:14;21.50;;;6.67;;
9082;SDS011;4577;48.704;9.000;2022-10-26T10:15:46;12.57;;;5.20;;
9082;SDS011;4577;48.704;9.000;2022-10-26T10:18:20;23.13;;;3.93;;
9082;SDS011;4577;48.704;9.000;2022-10-26T10:20:51;8.10;;;3.40;;
9082;SDS011;4577;48.704;9.000;2022-10-26T10:23:29;20.13;;;3.60;;
9082;SDS011;4577;48.704;9.000;2022-10-26T10:25:57;9.43;;;3.10;;
9082;SDS011;4577;48.704;9.000;2022-10-26T10:28:28;82.07;;;13.60;;
9082;SDS011;4577;48.704;9.000;2022-10-26T10:30:57;15.33;;;4.87;;
9082;SDS011;4577;48.704;9.000;2022-10-26T10:33:31;12.63;;;2.77;;
9082;SDS011;4577;48.704;9.000;2022-10-26T10:35:58;9.50;;;3.30;;
9082;SDS011;4577;48.704;9.000;2022-10-26T10:38:25;17.03;;;5.07;;
9082;SDS011;4577;48.704;9.000;2022-10-26T10:40:55;9.77;;;3.30;;
9082;SDS011;4577;48.704;9.000;2022-10-26T10:43:22;9.80;;;2.73;;
9082;SDS011;4577;48.704;9.000;2022-10-26T10:45:49;7.53;;;2.20;;
9082;SDS011;4577;48.704;9.000;2022-10-26T10:48:18;8.77;;;2.73;;
9082;SDS011;4577;48.704;9.000;2022-10-26T10:53:26;9.77;;;3.00;;
9082;SDS011;4577;48.704;9.000;2022-10-26T11:01:41;8.60;;;2.97;;
9082;SDS011;4577;48.704;9.000;2022-10-26T11:04:26;11.00;;;2.40;;
9082;SDS011;4577;48.704;9.000;2022-10-26T11:07:13;9.03;;;2.73;;
9082;SDS011;4577;48.704;9.000;2022-10-26T11:09:40;9.67;;;2.70;;
9082;SDS011;4577;48.704;9.000;2022-10-26T11:12:44;13.07;;;3.10;;
9082;SDS011;4577;48.704;9.000;2022-10-26T11:15:11;11.57;;;3.80;;
9082;SDS011;4577;48.704;9.000;2022-10-26T11:20:59;10.10;;;4.17;;
9082;SDS011;4577;48.704;9.000;2022-10-26T11:23:51;9.60;;;4.00;;
9082;SDS011;4577;48.704;9.000;2022-10-26T11:27:15;7.47;;;3.20;;
9082;SDS011;4577;48.704;9.000;2022-10-26T11:39:45;9.47;;;2.80;;
9082;SDS011;4577;48.704;9.000;2022-10-26T11:42:30;11.80;;;3.40;;
9082;SDS011;4577;48.704;9.000;2022-10-26T11:45:15;10.73;;;2.40;;
9082;SDS011;4577;48.704;9.000;2022-10-26T11:50:39;12.10;;;3.17;;
9082;SDS011;4577;48.704;9.000;2022-10-26T11:55:38;12.30;;;4.10;;
9082;SDS011;4577;48.704;9.000;2022-10-26T11:58:07;10.90;;;3.97;;
9082;SDS011;4577;48.704;9.000;2022-10-26T12:00:33;6.97;;;2.10;;
9082;SDS011;4577;48.704;9.000;2022-10-26T12:03:07;11.73;;;3.60;;
9082;SDS011;4577;48.704;9.000;2022-10-26T12:08:05;9.43;;;2.73;;
9082;SDS011;4577;48.704;9.000;2022-10-26T12:10:39;5.90;;;2.40;;
9082;SDS011;4577;48.704;9.000;2022-10-26T12:16:28;12.57;;;4.77;;
9082;SDS011;4577;48.704;9.000;2022-10-26T12:19:04;18.50;;;6.70;;
9082;SDS011;4577;48.704;9.000;2022-10-26T12:21:32;10.40;;;3.20;;
9082;SDS011;4577;48.704;9.000;2022-10-26T12:26:53;7.77;;;2.33;;
9082;SDS011;4577;48.704;9.000;2022-10-26T12:32:00;11.90;;;2.73;;
9082;SDS011;4577;48.704;9.000;2022-10-26T12:39:29;12.73;;;2.33;;
9082;SDS011;4577;48.704;9.000;2022-10-26T12:55:02;7.10;;;3.00;;
9082;SDS011;4577;48.704;9.000;2022-10-26T13:00:36;11.73;;;2.37;;
9082;SDS011;4577;48.704;9.000;2022-10-26T13:09:12;8.10;;;2.63;;
9082;SDS011;4577;48.704;9.000;2022-10-26T13:12:14;15.00;;;2.60;;
9082;SDS011;4577;48.704;9.000;2022-10-26T13:14:34;9.27;;;2.50;;
9082;SDS011;4577;48.704;9.000;2022-10-26T13:17:05;12.43;;;2.20;;
9082;SDS011;4577;48.704;9.000;2022-10-26T13:19:46;10.07;;;2.57;;
9082;SDS011;4577;48.704;9.000;2022-10-26T13:22:13;13.33;;;2.67;;
9082;SDS011;4577;48.704;9.000;2022-10-26T13:24:46;13.93;;;2.73;;
9082;SDS011;4577;48.704;9.000;2022-10-26T13:32:35;23.23;;;4.07;;
9082;SDS011;4577;48.704;9.000;2022-10-26T13:35:05;14.40;;;2.93;;
9082;SDS011;4577;48.704;9.000;2022-10-26T13:37:38;31.67;;;4.80;;
9082;SDS011;4577;48.704;9.000;2022-10-26T13:40:09;12.50;;;2.63;;
9082;SDS011;4577;48.704;9.000;2022-10-26T13:42:45;7.23;;;2.30;;
9082;SDS011;4577;48.704;9.000;2022-10-26T13:45:16;25.17;;;3.10;;
9082;SDS011;4577;48.704;9.000;2022-10-26T13:48:45;21.37;;;4.20;;
9082;SDS011;4577;48.704;9.000;2022-10-26T13:50:50;22.87;;;4.80;;
9082;SDS011;4577;48.704;9.000;2022-10-26T13:53:19;11.33;;;2.90;;
9082;SDS011;4577;48.704;9.000;2022-10-26T13:56:00;12.50;;;2.70;;
9082;SDS011;4577;48.704;9.000;2022-10-26T13:58:32;18.63;;;3.90;;
9082;SDS011;4577;48.704;9.000;2022-10-26T14:01:19;20.60;;;3.60;;
9082;SDS011;4577;48.704;9.000;2022-10-26T14:03:47;17.53;;;3.97;;
9082;SDS011;4577;48.704;9.000;2022-10-26T14:08:40;15.13;;;2.67;;
9082;SDS011;4577;48.704;9.000;2022-10-26T14:11:11;11.53;;;1.97;;
9082;SDS011;4577;48.704;9.000;2022-10-26T14:13:39;15.90;;;3.10;;
9082;SDS011;4577;48.704;9.000;2022-10-26T14:16:06;13.13;;;4.47;;
9082;SDS011;4577;48.704;9.000;2022-10-26T14:18:33;9.33;;;2.43;;
9082;SDS011;4577;48.704;9.000;2022-10-26T14:21:05;13.87;;;3.40;;
9082;SDS011;4577;48.704;9.000;2022-10-26T14:23:44;19.90;;;2.93;;
9082;SDS011;4577;48.704;9.000;2022-10-26T14:26:29;9.40;;;3.50;;
9082;SDS011;4577;48.704;9.000;2022-10-26T14:29:03;28.67;;;10.73;;
9082;SDS011;4577;48.704;9.000;2022-10-26T14:31:41;28.63;;;5.70;;
9082;SDS011;4577;48.704;9.000;2022-10-26T14:34:08;15.00;;;3.00;;
9082;SDS011;4577;48.704;9.000;2022-10-26T14:39:06;34.20;;;7.37;;
9082;SDS011;4577;48.704;9.000;2022-10-26T14:41:38;29.53;;;6.77;;
9082;SDS011;4577;48.704;9.000;2022-10-26T14:44:04;17.13;;;3.60;;
9082;SDS011;4577;48.704;9.000;2022-10-26T14:46:44;11.20;;;3.13;;
9082;SDS011;4577;48.704;9.000;2022-10-26T14:49:16;15.93;;;2.87;;
9082;SDS011;4577;48.704;9.000;2022-10-26T14:51:42;9.17;;;2.63;;
9082;SDS011;4577;48.704;9.000;2022-10-26T14:54:18;8.50;;;2.50;;
9082;SDS011;4577;48.704;9.000;2022-10-26T14:56:49;12.13;;;2.43;;
9082;SDS011;4577;48.704;9.000;2022-10-26T15:05:00;33.70;;;8.43;;
9082;SDS011;4577;48.704;9.000;2022-10-26T15:07:35;13.07;;;3.67;;
9082;SDS011;4577;48.704;9.000;2022-10-26T15:10:02;18.30;;;3.73;;
9082;SDS011;4577;48.704;9.000;2022-10-26T15:12:33;21.03;;;4.27;;
9082;SDS011;4577;48.704;9.000;2022-10-26T15:17:39;6.90;;;2.23;;
9082;SDS011;4577;48.704;9.000;2022-10-26T15:20:06;15.07;;;2.90;;
9082;SDS011;4577;48.704;9.000;2022-10-26T15:22:40;6.50;;;2.30;;
9082;SDS011;4577;48.704;9.000;2022-10-26T15:25:13;10.93;;;2.50;;
9082;SDS011;4577;48.704;9.000;2022-10-26T15:27:44;8.53;;;2.50;;
9082;SDS011;4577;48.704;9.000;2022-10-26T15:32:46;9.00;;;2.47;;
9082;SDS011;4577;48.704;9.000;2022-10-26T15:37:45;11.63;;;4.00;;
9082;SDS011;4577;48.704;9.000;2022-10-26T15:40:11;10.47;;;3.20;;
9082;SDS011;4577;48.704;9.000;2022-10-26T15:42:38;15.40;;;3.13;;
9082;SDS011;4577;48.704;9.000;2022-10-26T15:45:15;10.70;;;2.30;;
9082;SDS011;4577;48.704;9.000;2022-10-26T15:47:44;13.63;;;3.03;;
9082;SDS011;4577;48.704;9.000;2022-10-26T15:50:14;7.87;;;2.83;;
9082;SDS011;4577;48.704;9.000;2022-10-26T15:52:42;13.63;;;3.37;;
9082;SDS011;4577;48.704;9.000;2022-10-26T15:55:08;16.10;;;6.40;;
9082;SDS011;4577;48.704;9.000;2022-10-26T15:57:34;12.03;;;5.10;;
9082;SDS011;4577;48.704;9.000;2022-10-26T16:00:00;17.60;;;4.30;;
9082;SDS011;4577;48.704;9.000;2022-10-26T16:02:27;17.27;;;4.50;;
9082;SDS011;4577;48.704;9.000;2022-10-26T16:04:52;13.80;;;3.00;;
9082;SDS011;4577;48.704;9.000;2022-10-26T16:07:19;6.63;;;3.00;;
9082;SDS011;4577;48.704;9.000;2022-10-26T16:09:46;12.27;;;3.17;;
9082;SDS011;4577;48.704;9.000;2022-10-26T16:12:12;6.87;;;2.80;;
9082;SDS011;4577;48.704;9.000;2022-10-26T16:14:38;9.63;;;2.43;;
9082;SDS011;4577;48.704;9.000;2022-10-26T16:17:05;13.03;;;2.60;;
9082;SDS011;4577;48.704;9.000;2022-10-26T16:19:32;7.10;;;2.33;;
9082;SDS011;4577;48.704;9.000;2022-10-26T16:21:58;10.87;;;3.20;;
9082;SDS011;4577;48.704;9.000;2022-10-26T16:24:28;16.43;;;4.10;;
9082;SDS011;4577;48.704;9.000;2022-10-26T16:26:54;17.40;;;5.90;;
9082;SDS011;4577;48.704;9.000;2022-10-26T16:29:20;12.30;;;6.07;;
9082;SDS011;4577;48.704;9.000;2022-10-26T16:31:46;16.37;;;3.90;;
9082;SDS011;4577;48.704;9.000;2022-10-26T16:34:13;11.43;;;3.80;;
9082;SDS011;4577;48.704;9.000;2022-10-26T16:36:39;11.70;;;4.37;;
9082;SDS011;4577;48.704;9.000;2022-10-26T16:39:05;12.70;;;4.07;;
9082;SDS011;4577;48.704;9.000;2022-10-26T16:41:31;13.37;;;4.10;;
9082;SDS011;4577;48.704;9.000;2022-10-26T16:43:58;20.63;;;3.97;;
9082;SDS011;4577;48.704;9.000;2022-10-26T16:46:24;13.17;;;3.87;;
9082;SDS011;4577;48.704;9.000;2022-10-26T16:48:50;11.57;;;4.33;;
9082;SDS011;4577;48.704;9.000;2022-10-26T16:51:17;16.97;;;5.03;;
9082;SDS011;4577;48.704;9.000;2022-10-26T16:53:45;11.77;;;5.33;;
9082;SDS011;4577;48.704;9.000;2022-10-26T16:56:13;11.93;;;5.80;;
9082;SDS011;4577;48.704;9.000;2022-10-26T16:58:40;29.73;;;12.10;;
9082;SDS011;4577;48.704;9.000;2022-10-26T17:01:07;20.53;;;8.30;;
9082;SDS011;4577;48.704;9.000;2022-10-26T17:03:34;17.53;;;6.53;;
9082;SDS011;4577;48.704;9.000;2022-10-26T17:06:03;14.60;;;6.43;;
9082;SDS011;4577;48.704;9.000;2022-10-26T17:08:32;24.90;;;12.00;;
9082;SDS011;4577;48.704;9.000;2022-10-26T17:11:05;23.87;;;10.70;;
9082;SDS011;4577;48.704;9.000;2022-10-26T17:13:36;20.80;;;9.33;;
9082;SDS011;4577;48.704;9.000;2022-10-26T17:16:06;25.40;;;9.90;;
9082;SDS011;4577;48.704;9.000;2022-10-26T17:18:37;42.80;;;26.33;;
9082;SDS011;4577;48.704;9.000;2022-10-26T17:21:07;43.97;;;23.17;;
9082;SDS011;4577;48.704;9.000;2022-10-26T17:23:34;26.67;;;13.07;;
9082;SDS011;4577;48.704;9.000;2022-10-26T17:26:03;57.50;;;34.67;;
9082;SDS011;4577;48.704;9.000;2022-10-26T17:28:30;102.37;;;67.83;;
9082;SDS011;4577;48.704;9.000;2022-10-26T17:31:03;44.63;;;21.60;;
9082;SDS011;4577;48.704;9.000;2022-10-26T17:33:35;40.30;;;16.30;;
9082;SDS011;4577;48.704;9.000;2022-10-26T17:36:02;33.30;;;18.37;;
9082;SDS011;4577;48.704;9.000;2022-10-26T17:38:30;20.93;;;9.37;;
9082;SDS011;4577;48.704;9.000;2022-10-26T17:41:00;17.53;;;9.40;;
9082;SDS011;4577;48.704;9.000;2022-10-26T17:43:32;24.73;;;11.20;;
9082;SDS011;4577;48.704;9.000;2022-10-26T17:46:00;27.43;;;8.60;;
9082;SDS011;4577;48.704;9.000;2022-10-26T17:48:27;22.40;;;10.13;;
9082;SDS011;4577;48.704;9.000;2022-10-26T17:50:53;26.80;;;10.80;;
9082;SDS011;4577;48.704;9.000;2022-10-26T17:53:19;34.40;;;14.30;;